Time;durP1;ratioP1;P1;durP2;ratioP2;P2;SDS_P1;SDS_P2;PMS_P1;PMS_P2;Temp;Humidity;BMP_temperature;BMP_pressure;BME280_temperature;BME280_humidity;BME280_pressure;Samples;Min_cycle;Max_cycle;Signal;HPM_P1;HPM_P2
2022/10/28 00:00:43;;;;;;;14.13;3.05;;;18.90;99.90;;;;;;4183638;28;20186;-94
2022/10/28 00:02:43;;;;;;;14.98;3.47;;;18.90;99.90;;;;;;4166966;28;20203;-90
2022/10/28 00:04:44;;;;;;;13.23;2.85;;;19.00;99.90;;;;;;4183227;28;20167;-90
2022/10/28 00:06:45;;;;;;;14.10;3.00;;;18.90;99.90;;;;;;4199922;28;20198;-94
2022/10/28 00:08:46;;;;;;;14.63;3.33;;;18.90;99.90;;;;;;4166709;28;20191;-90
2022/10/28 00:10:46;;;;;;;12.25;3.08;;;18.90;99.90;;;;;;4183270;28;20159;-89
2022/10/28 00:12:47;;;;;;;12.50;2.67;;;18.90;99.90;;;;;;4166258;28;20284;-90
2022/10/28 00:14:48;;;;;;;16.02;3.03;;;18.90;99.90;;;;;;4205334;28;20217;-91
2022/10/28 00:16:48;;;;;;;7.75;2.50;;;18.80;99.90;;;;;;4175980;28;20184;-90
2022/10/28 00:18:52;;;;;;;10.00;3.17;;;18.70;99.90;;;;;;4176813;28;20773;-92
2022/10/28 00:21:17;;;;;;;14.13;3.03;;;18.80;99.90;;;;;;4207496;28;20179;-91
2022/10/28 00:23:17;;;;;;;14.70;3.25;;;18.90;99.90;;;;;;4172411;28;20520;-90
2022/10/28 00:25:23;;;;;;;10.07;2.83;;;18.80;99.90;;;;;;4191659;28;20222;-90
2022/10/28 00:27:32;;;;;;;16.25;3.05;;;18.80;99.90;;;;;;4191010;28;20263;-91
2022/10/28 00:29:32;;;;;;;24.40;3.15;;;18.70;99.90;;;;;;4175470;28;20213;-90
2022/10/28 00:31:34;;;;;;;15.93;3.20;;;18.70;99.90;;;;;;4192347;28;20211;-89
2022/10/28 00:33:36;;;;;;;16.33;2.88;;;18.60;99.90;;;;;;4190974;28;20207;-91
2022/10/28 00:35:37;;;;;;;18.35;3.03;;;18.70;99.90;;;;;;4191401;28;20163;-90
2022/10/28 00:37:37;;;;;;;11.80;3.17;;;18.70;99.90;;;;;;4177441;28;20199;-89
2022/10/28 00:39:38;;;;;;;22.98;3.38;;;18.70;99.90;;;;;;4189107;28;20186;-91
2022/10/28 00:41:42;;;;;;;13.60;3.63;;;18.70;99.90;;;;;;4177092;28;20223;-90
2022/10/28 00:43:54;;;;;;;14.45;3.03;;;18.60;99.90;;;;;;4175409;28;20231;-90
2022/10/28 00:45:55;;;;;;;11.98;3.33;;;18.60;99.90;;;;;;4192461;28;20151;-90
2022/10/28 00:48:16;;;;;;;12.20;2.88;;;18.60;99.90;;;;;;4175088;28;20274;-90
2022/10/28 00:50:37;;;;;;;14.55;3.10;;;18.60;99.90;;;;;;4176473;28;20152;-89
2022/10/28 00:52:40;;;;;;;10.45;3.00;;;18.60;99.90;;;;;;4193226;28;20203;-90
2022/10/28 00:54:42;;;;;;;13.43;3.65;;;18.50;99.90;;;;;;4205682;28;20218;-90
2022/10/28 00:56:48;;;;;;;14.80;3.35;;;18.50;99.90;;;;;;4189248;28;20167;-90
2022/10/28 00:58:50;;;;;;;14.32;2.97;;;18.40;99.90;;;;;;4190876;28;20180;-90
2022/10/28 01:00:51;;;;;;;16.38;3.47;;;18.50;99.90;;;;;;4190766;28;20243;-90
2022/10/28 01:02:52;;;;;;;12.38;2.88;;;18.50;99.90;;;;;;4174763;28;20211;-90
2022/10/28 01:04:53;;;;;;;16.23;3.30;;;18.50;99.90;;;;;;4191446;28;20155;-89
2022/10/28 01:06:55;;;;;;;19.80;2.95;;;18.50;99.90;;;;;;4174615;28;20176;-90
2022/10/28 01:08:56;;;;;;;13.23;2.90;;;18.40;99.90;;;;;;4206739;28;20181;-90
2022/10/28 01:11:15;;;;;;;13.77;3.33;;;18.40;99.90;;;;;;4173421;28;20152;-91
2022/10/28 01:13:31;;;;;;;17.02;3.08;;;18.40;99.90;;;;;;4173316;28;20216;-91
2022/10/28 01:15:48;;;;;;;18.48;3.30;;;18.40;99.90;;;;;;4173724;28;20265;-90
2022/10/28 01:17:49;;;;;;;18.52;3.67;;;18.30;99.90;;;;;;4192566;28;20729;-90
2022/10/28 01:20:32;;;;;;;15.52;3.25;;;18.30;99.90;;;;;;4190261;28;20710;-90
2022/10/28 01:22:55;;;;;;;13.40;3.45;;;18.30;99.90;;;;;;4189006;28;20262;-90
2022/10/28 01:25:35;;;;;;;14.75;3.17;;;18.30;99.90;;;;;;4171751;28;20271;-89
2022/10/28 01:28:03;;;;;;;17.05;3.53;;;18.20;99.90;;;;;;4172151;28;20184;-90
2022/10/28 01:30:32;;;;;;;15.15;2.92;;;18.20;99.90;;;;;;4172177;28;20187;-90
2022/10/28 01:32:57;;;;;;;18.45;3.28;;;18.20;99.90;;;;;;4205121;28;20210;-91
2022/10/28 01:35:13;;;;;;;18.17;3.72;;;18.20;99.90;;;;;;4191661;28;20290;-90
2022/10/28 01:37:27;;;;;;;15.98;3.00;;;18.20;99.90;;;;;;4189969;28;20176;-90
2022/10/28 01:39:45;;;;;;;11.85;3.10;;;18.20;99.90;;;;;;4190664;28;20179;-90
2022/10/28 01:42:28;;;;;;;10.38;2.78;;;18.10;99.90;;;;;;4208064;28;20199;-90
2022/10/28 01:44:35;;;;;;;12.63;3.13;;;18.20;99.90;;;;;;4194172;28;20179;-90
2022/10/28 01:46:53;;;;;;;13.10;3.08;;;18.20;99.90;;;;;;4189770;28;20151;-90
2022/10/28 01:49:17;;;;;;;15.43;3.13;;;18.20;99.90;;;;;;4209582;28;20151;-90
2022/10/28 01:51:31;;;;;;;12.57;3.20;;;18.20;99.90;;;;;;4174335;28;20191;-89
2022/10/28 01:53:44;;;;;;;10.75;2.92;;;18.20;99.90;;;;;;4176299;28;20222;-90
2022/10/28 01:55:47;;;;;;;13.60;2.92;;;18.20;99.90;;;;;;4174766;28;20242;-91
2022/10/28 01:57:51;;;;;;;14.07;2.85;;;18.20;99.90;;;;;;4190983;28;20159;-90
2022/10/28 01:59:52;;;;;;;12.93;2.80;;;18.10;99.90;;;;;;4172215;28;20164;-89
2022/10/28 02:01:54;;;;;;;15.23;3.47;;;18.10;99.90;;;;;;4175648;28;20198;-90
2022/10/28 02:03:55;;;;;;;12.93;2.92;;;18.10;99.90;;;;;;4205727;28;20230;-91
2022/10/28 02:05:59;;;;;;;15.82;3.47;;;18.10;99.90;;;;;;4188922;28;20172;-91
2022/10/28 02:08:17;;;;;;;12.77;2.80;;;18.10;99.90;;;;;;4174007;28;20180;-90
2022/10/28 02:10:36;;;;;;;10.45;2.90;;;18.10;99.90;;;;;;4189388;28;20164;-90
2022/10/28 02:12:37;;;;;;;22.65;3.72;;;18.10;99.90;;;;;;4191104;28;20176;-90
2022/10/28 02:15:03;;;;;;;18.38;3.10;;;18.10;99.90;;;;;;4189727;28;20219;-90
2022/10/28 02:17:41;;;;;;;18.20;3.05;;;18.00;99.90;;;;;;4171658;28;20188;-90
2022/10/28 02:20:14;;;;;;;15.20;3.33;;;17.90;99.90;;;;;;4173935;28;20513;-90
2022/10/28 02:22:48;;;;;;;22.25;3.33;;;18.00;99.90;;;;;;4192143;28;20663;-91
2022/10/28 02:24:54;;;;;;;14.60;3.63;;;18.10;99.90;;;;;;4191516;28;20774;-91
2022/10/28 02:27:04;;;;;;;14.15;3.15;;;18.20;99.90;;;;;;4188118;28;20179;-90
2022/10/28 02:29:32;;;;;;;10.88;2.78;;;18.20;99.90;;;;;;4192034;28;20631;-90
2022/10/28 02:31:44;;;;;;;14.50;3.08;;;18.10;99.90;;;;;;4147701;28;20203;-91
2022/10/28 02:33:50;;;;;;;20.33;3.50;;;18.20;99.90;;;;;;4189100;28;20187;-90
2022/10/28 02:36:18;;;;;;;13.60;2.85;;;18.20;99.90;;;;;;4174086;28;20210;-91
2022/10/28 02:38:38;;;;;;;13.05;2.80;;;18.20;99.90;;;;;;4174743;28;20223;-90
2022/10/28 02:40:50;;;;;;;10.63;3.47;;;18.10;99.90;;;;;;4191589;28;20232;-91
2022/10/28 02:43:02;;;;;;;13.05;2.78;;;18.10;99.90;;;;;;4193172;28;20282;-90
2022/10/28 02:45:14;;;;;;;20.10;3.67;;;18.10;99.90;;;;;;4190947;28;20156;-90
2022/10/28 02:47:30;;;;;;;14.93;3.38;;;18.10;99.90;;;;;;4194948;28;20206;-88
2022/10/28 02:49:34;;;;;;;12.40;3.28;;;18.00;99.90;;;;;;4192459;28;20266;-89
2022/10/28 02:51:56;;;;;;;13.95;3.00;;;18.10;99.90;;;;;;4193853;28;20647;-92
2022/10/28 02:54:16;;;;;;;10.20;3.20;;;18.10;99.90;;;;;;4192062;28;20230;-91
2022/10/28 02:56:19;;;;;;;10.75;2.88;;;18.10;99.90;;;;;;4195630;28;20186;-91
2022/10/28 02:58:21;;;;;;;15.85;3.00;;;18.10;99.90;;;;;;4193641;28;20171;-91
2022/10/28 03:00:23;;;;;;;13.20;3.20;;;18.10;99.90;;;;;;4176333;28;20160;-92
2022/10/28 03:02:28;;;;;;;14.32;3.47;;;18.10;99.90;;;;;;4197017;28;20207;-91
2022/10/28 03:04:29;;;;;;;12.68;3.58;;;18.10;99.90;;;;;;4194717;28;20218;-92
2022/10/28 03:06:30;;;;;;;11.10;2.65;;;18.10;99.90;;;;;;4177947;28;20184;-90
2022/10/28 03:08:30;;;;;;;14.55;3.38;;;18.00;99.90;;;;;;4209450;28;20224;-92
2022/10/28 03:10:31;;;;;;;13.82;3.17;;;18.00;99.90;;;;;;4192705;28;20155;-90
2022/10/28 03:12:32;;;;;;;10.82;3.45;;;18.00;99.90;;;;;;4191733;28;20199;-91
2022/10/28 03:14:32;;;;;;;11.13;3.22;;;18.00;99.90;;;;;;4176101;28;20672;-90
2022/10/28 03:16:33;;;;;;;11.68;3.17;;;18.00;99.90;;;;;;4176200;28;20182;-91
2022/10/28 03:18:49;;;;;;;14.77;3.50;;;17.90;99.90;;;;;;4195290;28;20184;-90
2022/10/28 03:20:50;;;;;;;16.10;3.28;;;18.00;99.90;;;;;;4175974;28;20218;-89
2022/10/28 03:22:50;;;;;;;15.15;2.95;;;17.90;99.90;;;;;;4180793;28;20619;-89
2022/10/28 03:24:51;;;;;;;12.95;2.95;;;18.00;99.90;;;;;;4175241;28;20164;-91
2022/10/28 03:26:52;;;;;;;20.05;3.50;;;18.10;99.90;;;;;;4194007;28;20163;-90
2022/10/28 03:28:52;;;;;;;15.30;3.05;;;18.10;99.90;;;;;;4194640;28;20186;-90
2022/10/28 03:30:56;;;;;;;15.85;3.00;;;18.00;99.90;;;;;;4192880;28;20163;-90
2022/10/28 03:32:56;;;;;;;16.58;2.65;;;18.10;99.90;;;;;;4174745;28;20192;-90
2022/10/28 03:34:57;;;;;;;14.23;4.13;;;18.10;99.90;;;;;;4191566;28;20716;-90
2022/10/28 03:36:58;;;;;;;16.27;3.33;;;18.00;99.90;;;;;;4177631;28;20161;-91
2022/10/28 03:38:58;;;;;;;10.98;3.38;;;17.90;99.90;;;;;;4174118;28;20271;-90
2022/10/28 03:40:59;;;;;;;12.85;2.95;;;17.80;99.90;;;;;;4172973;28;20187;-91
2022/10/28 03:43:00;;;;;;;10.57;2.97;;;17.90;99.90;;;;;;4192512;28;20249;-91
2022/10/28 03:45:00;;;;;;;14.13;3.60;;;17.80;99.90;;;;;;4175950;28;20152;-91
2022/10/28 03:47:01;;;;;;;9.65;3.45;;;17.90;99.90;;;;;;4174430;28;20246;-90
2022/10/28 03:49:03;;;;;;;16.60;3.10;;;17.80;99.90;;;;;;4174954;28;20227;-91
2022/10/28 03:51:03;;;;;;;22.15;3.63;;;17.90;99.90;;;;;;4173403;28;20172;-89
2022/10/28 03:53:04;;;;;;;15.85;3.35;;;17.90;99.90;;;;;;4190577;28;20180;-90
2022/10/28 03:55:05;;;;;;;13.18;3.33;;;17.90;99.90;;;;;;4173303;28;20183;-90
2022/10/28 03:57:21;;;;;;;16.17;3.67;;;17.90;99.90;;;;;;4189852;28;20183;-90
2022/10/28 03:59:21;;;;;;;17.85;3.55;;;17.90;99.90;;;;;;4206530;28;20155;-90
2022/10/28 04:01:22;;;;;;;21.98;3.30;;;17.90;99.90;;;;;;4174684;28;20219;-90
2022/10/28 04:03:24;;;;;;;17.15;3.25;;;18.00;99.90;;;;;;4178237;28;20187;-90
2022/10/28 04:05:24;;;;;;;15.15;3.15;;;18.00;99.90;;;;;;4176217;28;20160;-91
2022/10/28 04:07:25;;;;;;;19.23;3.63;;;17.90;99.90;;;;;;4192774;28;20160;-91
2022/10/28 04:09:26;;;;;;;16.05;3.58;;;17.90;99.90;;;;;;4176912;28;20282;-90
2022/10/28 04:11:26;;;;;;;15.55;3.58;;;18.00;99.90;;;;;;4210188;28;20252;-90
2022/10/28 04:13:27;;;;;;;9.15;3.08;;;17.90;99.90;;;;;;4173828;28;20219;-90
2022/10/28 04:15:31;;;;;;;14.07;3.22;;;18.00;99.90;;;;;;4191273;28;20215;-91
2022/10/28 04:17:40;;;;;;;13.25;3.75;;;17.90;99.90;;;;;;4190031;28;20178;-90
2022/10/28 04:19:41;;;;;;;16.77;3.08;;;17.80;99.90;;;;;;4192059;28;20163;-91
2022/10/28 04:21:42;;;;;;;12.60;3.40;;;17.70;99.90;;;;;;4173979;28;20703;-91
2022/10/28 04:23:42;;;;;;;17.35;3.40;;;17.80;99.90;;;;;;4192787;28;20193;-91
2022/10/28 04:25:43;;;;;;;15.10;3.42;;;17.80;99.90;;;;;;4192674;28;20167;-91
2022/10/28 04:27:47;;;;;;;17.75;3.50;;;17.80;99.90;;;;;;4175144;28;20176;-90
2022/10/28 04:29:48;;;;;;;17.33;3.40;;;17.60;99.90;;;;;;4191579;28;20172;-90
2022/10/28 04:31:52;;;;;;;10.70;3.25;;;17.60;99.90;;;;;;4178074;28;20207;-91
2022/10/28 04:33:52;;;;;;;17.05;3.50;;;17.60;99.90;;;;;;4175205;28;20298;-91
2022/10/28 04:36:13;;;;;;;22.45;3.50;;;17.60;99.90;;;;;;4192784;28;20176;-92
2022/10/28 04:38:14;;;;;;;11.32;3.33;;;17.70;99.90;;;;;;4175674;28;20156;-91
2022/10/28 04:40:15;;;;;;;17.15;3.30;;;17.70;99.90;;;;;;4172302;28;20270;-91
2022/10/28 04:42:16;;;;;;;15.68;3.60;;;17.70;99.90;;;;;;4176289;28;20198;-91
2022/10/28 04:44:16;;;;;;;17.73;3.40;;;17.70;99.90;;;;;;4170175;28;20208;-91
2022/10/28 04:46:17;;;;;;;15.45;3.50;;;17.80;99.90;;;;;;4203182;28;20643;-90
2022/10/28 04:48:18;;;;;;;12.65;2.90;;;17.70;99.90;;;;;;4173117;28;20199;-89
2022/10/28 04:50:18;;;;;;;14.90;2.60;;;17.60;99.90;;;;;;4188104;28;20215;-90
2022/10/28 04:52:19;;;;;;;17.63;3.92;;;17.50;99.90;;;;;;4174269;28;20172;-91
2022/10/28 04:54:20;;;;;;;16.60;3.55;;;17.50;99.90;;;;;;4204611;28;20240;-91
2022/10/28 04:56:21;;;;;;;11.20;3.65;;;17.50;99.90;;;;;;4172213;28;20172;-90
2022/10/28 04:58:21;;;;;;;16.13;3.58;;;17.40;99.90;;;;;;4193947;28;20207;-90
2022/10/28 05:00:38;;;;;;;14.98;3.38;;;17.50;99.90;;;;;;4209796;28;20159;-91
2022/10/28 05:02:38;;;;;;;8.45;3.92;;;17.50;99.90;;;;;;4175671;28;20188;-90
2022/10/28 05:04:39;;;;;;;20.60;3.30;;;17.40;99.90;;;;;;4193237;28;20215;-90
2022/10/28 05:06:40;;;;;;;17.13;3.70;;;17.40;99.90;;;;;;4172426;28;20222;-92
2022/10/28 05:08:41;;;;;;;12.75;3.17;;;17.40;99.90;;;;;;4204632;28;20183;-90
2022/10/28 05:10:41;;;;;;;11.35;3.75;;;17.40;99.90;;;;;;4174901;28;20179;-90
2022/10/28 05:12:42;;;;;;;18.73;3.63;;;17.40;99.90;;;;;;4173546;28;20188;-90
2022/10/28 05:14:47;;;;;;;18.17;3.88;;;17.30;99.90;;;;;;4176647;28;20270;-91
2022/10/28 05:16:47;;;;;;;13.90;3.53;;;17.30;99.90;;;;;;4173940;28;20167;-92
2022/10/28 05:18:48;;;;;;;11.02;3.30;;;17.30;99.90;;;;;;4189377;28;20258;-92
2022/10/28 05:20:53;;;;;;;13.18;3.55;;;17.20;99.90;;;;;;4173334;28;20184;-91
2022/10/28 05:22:55;;;;;;;17.27;3.72;;;17.20;99.90;;;;;;4190708;28;20176;-92
2022/10/28 05:24:56;;;;;;;20.08;3.40;;;17.20;99.90;;;;;;4190294;28;20152;-91
2022/10/28 05:26:59;;;;;;;17.85;3.60;;;17.30;99.90;;;;;;4192915;28;20221;-91
2022/10/28 05:29:00;;;;;;;11.20;2.92;;;17.20;99.90;;;;;;4188344;28;20175;-90
2022/10/28 05:31:00;;;;;;;16.33;3.58;;;17.20;99.90;;;;;;4192212;28;20175;-91
2022/10/28 05:33:01;;;;;;;19.00;3.10;;;17.30;99.90;;;;;;4190365;28;20179;-91
2022/10/28 05:35:03;;;;;;;12.82;3.28;;;17.30;99.90;;;;;;4191389;28;20187;-91
2022/10/28 05:37:03;;;;;;;18.92;3.85;;;17.40;99.90;;;;;;4189499;28;20151;-91
2022/10/28 05:39:04;;;;;;;17.13;3.35;;;17.30;99.90;;;;;;4191760;28;20242;-90
2022/10/28 05:41:05;;;;;;;14.38;3.58;;;17.40;99.90;;;;;;4175022;28;20190;-91
2022/10/28 05:43:08;;;;;;;23.58;3.80;;;17.40;99.90;;;;;;4191611;28;20190;-90
2022/10/28 05:45:10;;;;;;;11.45;3.53;;;17.40;99.90;;;;;;4191655;28;20228;-91
2022/10/28 05:47:13;;;;;;;23.00;3.55;;;17.30;99.90;;;;;;4175510;28;20203;-91
2022/10/28 05:49:19;;;;;;;11.00;2.72;;;17.20;99.90;;;;;;4187668;28;20179;-91
2022/10/28 05:51:19;;;;;;;20.05;3.13;;;17.30;99.90;;;;;;4175989;28;20180;-90
2022/10/28 05:53:20;;;;;;;15.77;3.22;;;17.40;99.90;;;;;;4191012;28;20182;-90
2022/10/28 05:55:26;;;;;;;13.50;3.40;;;17.40;99.90;;;;;;4173054;28;20180;-91
2022/10/28 05:57:50;;;;;;;13.45;3.53;;;17.50;99.90;;;;;;4190989;28;20167;-92
2022/10/28 05:59:50;;;;;;;15.95;3.35;;;17.50;99.90;;;;;;4187815;28;20221;-90
2022/10/28 06:01:51;;;;;;;15.73;3.85;;;17.50;99.90;;;;;;4173848;28;20212;-91
2022/10/28 06:03:52;;;;;;;13.52;3.00;;;17.50;99.90;;;;;;4170391;28;20164;-92
2022/10/28 06:05:53;;;;;;;10.68;3.53;;;17.50;99.90;;;;;;4171383;28;20157;-93
2022/10/28 06:07:54;;;;;;;15.50;2.85;;;17.70;99.90;;;;;;4173799;28;20179;-92
2022/10/28 06:09:55;;;;;;;17.83;4.18;;;17.80;99.90;;;;;;4174515;28;20163;-90
2022/10/28 06:11:55;;;;;;;17.83;3.33;;;17.70;99.90;;;;;;4190052;28;20199;-91
2022/10/28 06:13:56;;;;;;;23.80;3.53;;;17.70;99.90;;;;;;4173597;28;20396;-92
2022/10/28 06:15:57;;;;;;;19.30;3.60;;;17.70;99.90;;;;;;4174733;28;20148;-91
2022/10/28 06:17:57;;;;;;;18.35;4.03;;;17.70;99.90;;;;;;4172438;28;20212;-92
2022/10/28 06:19:58;;;;;;;17.25;3.83;;;17.60;99.90;;;;;;4173412;28;20176;-92
2022/10/28 06:21:59;;;;;;;18.02;4.20;;;17.50;99.90;;;;;;4190008;28;20626;-92
2022/10/28 06:24:00;;;;;;;14.35;3.38;;;17.50;99.90;;;;;;4175136;28;20264;-92
2022/10/28 06:26:03;;;;;;;12.70;3.33;;;17.40;99.90;;;;;;4190713;28;20211;-90
2022/10/28 06:28:04;;;;;;;13.40;3.28;;;17.40;99.90;;;;;;4207824;28;20222;-91
2022/10/28 06:30:08;;;;;;;16.10;3.80;;;17.30;99.90;;;;;;4174056;28;20645;-90
2022/10/28 06:32:09;;;;;;;15.82;3.72;;;17.30;99.90;;;;;;4189898;28;20303;-91
2022/10/28 06:34:11;;;;;;;17.80;3.20;;;17.30;99.90;;;;;;4189431;28;20262;-91
2022/10/28 06:36:15;;;;;;;17.63;3.20;;;17.30;99.90;;;;;;4173186;28;20173;-91
2022/10/28 06:38:15;;;;;;;18.40;3.63;;;17.30;99.90;;;;;;4190230;28;20271;-91
2022/10/28 06:40:16;;;;;;;17.80;3.60;;;17.40;99.90;;;;;;4190687;28;20172;-91
2022/10/28 06:42:17;;;;;;;19.10;3.63;;;17.50;99.90;;;;;;4190587;28;20183;-91
2022/10/28 06:44:18;;;;;;;12.95;3.55;;;17.60;99.90;;;;;;4188706;28;20214;-90
2022/10/28 06:46:19;;;;;;;13.55;3.53;;;17.70;99.90;;;;;;4172036;28;20271;-91
2022/10/28 06:48:20;;;;;;;14.55;3.47;;;17.80;99.90;;;;;;4171784;28;20236;-93
2022/10/28 06:50:20;;;;;;;14.98;3.53;;;18.00;99.90;;;;;;4187907;28;20214;-92
2022/10/28 06:52:28;;;;;;;15.30;3.08;;;18.10;99.90;;;;;;4206271;28;20545;-91
2022/10/28 06:54:29;;;;;;;19.05;4.13;;;18.10;99.90;;;;;;4186552;28;20211;-91
2022/10/28 06:56:30;;;;;;;14.68;3.97;;;18.30;99.90;;;;;;4166878;28;20667;-92
2022/10/28 06:58:30;;;;;;;20.13;4.13;;;18.40;99.90;;;;;;4206357;28;20159;-92
2022/10/28 07:00:32;;;;;;;16.30;4.20;;;18.40;99.90;;;;;;4174519;28;20207;-91
2022/10/28 07:02:33;;;;;;;16.13;3.88;;;18.40;99.90;;;;;;4189490;28;20203;-92
2022/10/28 07:04:33;;;;;;;14.98;3.92;;;18.40;99.90;;;;;;4205191;28;20305;-92
2022/10/28 07:06:34;;;;;;;17.25;3.70;;;18.30;99.90;;;;;;4187651;28;20172;-92
2022/10/28 07:08:35;;;;;;;19.60;3.65;;;18.30;99.90;;;;;;4190642;28;20234;-90
2022/10/28 07:10:36;;;;;;;13.75;3.78;;;18.50;99.90;;;;;;4172304;28;20184;-93
2022/10/28 07:12:36;;;;;;;17.38;3.92;;;18.60;99.90;;;;;;4174221;28;20279;-93
2022/10/28 07:14:37;;;;;;;14.95;4.20;;;18.70;99.90;;;;;;4189115;28;20257;-91
2022/10/28 07:16:45;;;;;;;17.95;3.42;;;18.80;99.90;;;;;;4187144;28;20233;-94
2022/10/28 07:18:49;;;;;;;13.02;3.13;;;18.80;99.90;;;;;;4171620;28;20168;-95
2022/10/28 07:20:50;;;;;;;13.07;3.45;;;18.70;99.90;;;;;;4171955;28;20177;-94
2022/10/28 07:23:16;;;;;;;14.13;3.75;;;18.60;99.90;;;;;;4189327;28;20296;-91
2022/10/28 07:25:19;;;;;;;17.23;3.70;;;18.70;99.90;;;;;;4174261;28;20518;-93
2022/10/28 07:27:22;;;;;;;15.90;3.53;;;18.80;99.90;;;;;;4174130;28;20179;-90
2022/10/28 07:29:23;;;;;;;20.00;3.60;;;19.00;99.90;;;;;;4176192;28;20176;-93
2022/10/28 07:31:26;;;;;;;17.83;3.58;;;19.10;99.90;;;;;;4191330;28;20179;-96
2022/10/28 07:33:27;;;;;;;11.43;3.35;;;19.00;99.90;;;;;;4194079;28;20183;-91
2022/10/28 07:35:28;;;;;;;16.23;3.42;;;19.10;99.90;;;;;;4176341;28;20291;-95
2022/10/28 07:37:28;;;;;;;12.02;3.78;;;19.40;99.90;;;;;;4157083;28;20247;-91
2022/10/28 07:39:29;;;;;;;17.73;3.70;;;19.40;99.90;;;;;;4191583;28;20531;-91
2022/10/28 07:41:30;;;;;;;21.38;3.70;;;19.50;99.90;;;;;;4175422;28;20189;-93
2022/10/28 07:43:30;;;;;;;17.13;3.70;;;19.50;99.90;;;;;;4194791;28;20175;-91
2022/10/28 07:45:31;;;;;;;17.00;4.13;;;19.70;99.90;;;;;;4188008;28;20183;-91
2022/10/28 07:47:32;;;;;;;11.23;3.60;;;19.80;99.90;;;;;;4191811;28;20179;-91
2022/10/28 07:49:33;;;;;;;19.17;3.45;;;19.80;99.90;;;;;;4172805;28;20172;-92
2022/10/28 07:51:34;;;;;;;20.73;4.03;;;19.90;99.90;;;;;;4172833;28;20704;-93
2022/10/28 07:53:34;;;;;;;19.30;3.60;;;19.90;99.90;;;;;;4175363;28;20222;-91
2022/10/28 07:55:35;;;;;;;16.67;3.65;;;19.80;99.90;;;;;;4187857;28;20742;-92
2022/10/28 07:57:37;;;;;;;16.98;3.30;;;19.90;99.90;;;;;;4176775;28;20192;-93
2022/10/28 07:59:41;;;;;;;15.00;4.00;;;19.80;99.90;;;;;;4192893;28;20187;-95
2022/10/28 08:01:45;;;;;;;15.98;3.83;;;20.10;99.90;;;;;;4209320;28;20293;-92
2022/10/28 08:03:46;;;;;;;16.38;3.40;;;20.00;99.90;;;;;;4194213;28;20179;-92
2022/10/28 08:06:04;;;;;;;27.15;4.47;;;19.90;99.90;;;;;;4197517;28;20156;-92
2022/10/28 08:08:05;;;;;;;23.90;4.40;;;19.90;99.90;;;;;;4193661;28;20167;-92
2022/10/28 08:10:09;;;;;;;13.18;3.60;;;19.80;99.90;;;;;;4176012;28;20180;-93
2022/10/28 08:12:17;;;;;;;14.50;3.63;;;19.90;99.90;;;;;;4193783;28;20221;-93
2022/10/28 08:14:18;;;;;;;17.58;3.58;;;19.70;99.90;;;;;;4204345;28;20296;-93
2022/10/28 08:16:19;;;;;;;22.58;4.25;;;19.70;99.90;;;;;;4175595;28;20169;-93
2022/10/28 08:18:20;;;;;;;16.88;2.92;;;19.80;99.90;;;;;;4192421;28;20183;-92
2022/10/28 08:20:22;;;;;;;15.30;3.88;;;19.90;99.90;;;;;;4176678;28;20203;-93
2022/10/28 08:22:23;;;;;;;20.90;3.55;;;20.00;99.90;;;;;;4179853;28;20196;-91
2022/10/28 08:24:24;;;;;;;15.95;3.50;;;20.10;99.90;;;;;;4174727;28;20161;-93
2022/10/28 08:26:25;;;;;;;14.77;3.40;;;20.20;99.90;;;;;;4175712;28;20176;-92
2022/10/28 08:28:26;;;;;;;18.58;3.25;;;20.20;99.90;;;;;;4191160;28;20175;-91
2022/10/28 08:30:27;;;;;;;19.52;4.28;;;20.10;99.90;;;;;;4176924;28;20187;-93
2022/10/28 08:32:27;;;;;;;18.70;3.80;;;20.10;99.90;;;;;;4178724;28;20198;-93
2022/10/28 08:34:29;;;;;;;18.13;4.78;;;20.10;99.90;;;;;;4175853;28;20200;-96
2022/10/28 08:36:38;;;;;;;22.75;3.67;;;19.90;99.90;;;;;;4192148;28;20182;-93
2022/10/28 08:38:41;;;;;;;20.75;3.92;;;19.90;99.90;;;;;;4212851;28;20154;-94
2022/10/28 08:40:59;;;;;;;17.95;3.28;;;19.90;99.90;;;;;;4171277;28;20176;-91
2022/10/28 08:43:18;;;;;;;19.60;3.33;;;20.20;99.90;;;;;;4206875;28;20198;-91
2022/10/28 08:45:28;;;;;;;13.25;3.85;;;20.30;99.90;;;;;;4172484;28;20184;-92
2022/10/28 08:47:57;;;;;;;23.75;5.43;;;20.40;99.90;;;;;;4175352;28;20184;-92
2022/10/28 08:50:20;;;;;;;21.17;4.70;;;20.80;99.90;;;;;;4204746;28;20678;-93
2022/10/28 08:52:56;;;;;;;17.25;3.20;;;21.00;99.90;;;;;;4177769;28;20560;-94
2022/10/28 08:55:13;;;;;;;15.70;3.22;;;21.50;99.90;;;;;;4142927;28;20297;-95
2022/10/28 08:57:19;;;;;;;15.98;3.67;;;21.50;99.90;;;;;;4174442;28;20334;-93
2022/10/28 08:59:34;;;;;;;13.80;3.13;;;21.60;99.90;;;;;;4191331;28;20192;-92
2022/10/28 09:01:52;;;;;;;18.13;3.28;;;22.00;99.90;;;;;;4172198;28;20239;-91
2022/10/28 09:04:17;;;;;;;21.67;3.83;;;21.70;99.90;;;;;;4209066;28;20279;-91
2022/10/28 09:06:18;;;;;;;26.05;3.60;;;22.00;99.90;;;;;;4178084;28;20287;-93
2022/10/28 09:08:24;;;;;;;17.80;3.65;;;22.20;99.90;;;;;;4190774;28;20183;-92
2022/10/28 09:10:50;;;;;;;14.35;3.78;;;22.30;99.90;;;;;;4189282;28;20168;-92
2022/10/28 09:13:18;;;;;;;17.13;3.97;;;22.60;99.90;;;;;;4173742;28;20200;-92
2022/10/28 09:15:21;;;;;;;15.38;4.20;;;23.10;99.90;;;;;;4172536;28;20171;-95
2022/10/28 09:17:28;;;;;;;18.05;4.10;;;23.20;99.90;;;;;;4173889;28;20187;-91
2022/10/28 09:19:32;;;;;;;16.35;3.72;;;23.30;99.90;;;;;;4212565;28;20264;-93
2022/10/28 09:21:59;;;;;;;18.83;3.97;;;23.80;99.90;;;;;;4191338;28;20195;-90
2022/10/28 09:24:13;;;;;;;20.58;3.78;;;23.60;99.90;;;;;;4173598;28;20188;-93
2022/10/28 09:26:41;;;;;;;14.52;4.03;;;23.60;99.90;;;;;;4189501;28;20182;-91
2022/10/28 09:28:42;;;;;;;24.30;4.10;;;23.30;99.90;;;;;;4174348;28;20164;-92
2022/10/28 09:31:01;;;;;;;19.58;4.65;;;23.00;99.90;;;;;;4190979;28;20232;-89
2022/10/28 09:33:26;;;;;;;23.63;4.30;;;23.00;99.90;;;;;;4174224;28;20200;-91
2022/10/28 09:35:49;;;;;;;21.23;4.00;;;22.70;99.90;;;;;;4173853;28;20203;-91
2022/10/28 09:37:58;;;;;;;15.38;3.60;;;22.60;99.90;;;;;;4188201;28;20186;-91
2022/10/28 09:40:20;;;;;;;14.65;3.35;;;22.60;99.90;;;;;;4191383;28;20597;-92
2022/10/28 09:42:46;;;;;;;14.30;3.80;;;22.60;99.90;;;;;;4192916;28;20203;-91
2022/10/28 09:45:03;;;;;;;21.95;4.07;;;22.60;99.90;;;;;;4176319;28;20191;-91
2022/10/28 09:47:32;;;;;;;22.48;3.42;;;22.40;99.90;;;;;;4192374;28;20159;-92
2022/10/28 09:49:35;;;;;;;17.15;3.72;;;22.30;99.90;;;;;;4190050;28;20218;-92
2022/10/28 09:52:07;;;;;;;18.30;4.07;;;22.50;99.90;;;;;;4192375;28;20183;-92
2022/10/28 09:54:10;;;;;;;19.45;3.63;;;22.40;99.90;;;;;;4176624;28;20196;-91
2022/10/28 09:56:11;;;;;;;23.38;3.55;;;22.30;99.90;;;;;;4192668;28;20211;-92
2022/10/28 09:58:15;;;;;;;23.90;4.03;;;22.40;99.90;;;;;;4190672;28;20205;-92
2022/10/28 10:00:17;;;;;;;10.75;3.17;;;22.30;99.90;;;;;;4171369;28;20156;-92
2022/10/28 10:02:27;;;;;;;14.95;3.15;;;22.30;99.90;;;;;;4218067;22;20214;-93
2022/10/28 10:04:30;;;;;;;16.80;3.75;;;22.30;99.90;;;;;;4186641;28;20158;-93
2022/10/28 10:06:54;;;;;;;15.75;3.22;;;22.60;99.90;;;;;;4189048;28;20175;-92
2022/10/28 10:08:55;;;;;;;21.10;3.47;;;22.70;99.90;;;;;;4191413;28;20189;-92
2022/10/28 10:11:31;;;;;;;18.27;3.25;;;22.80;99.90;;;;;;4173735;28;20179;-93
2022/10/28 10:13:37;;;;;;;18.45;3.50;;;22.90;99.90;;;;;;4170838;28;20268;-92
2022/10/28 10:15:49;;;;;;;17.58;2.90;;;22.80;99.90;;;;;;4192419;28;20218;-93
2022/10/28 10:17:51;;;;;;;15.25;3.10;;;22.70;99.90;;;;;;4177206;28;20171;-93
2022/10/28 10:20:07;;;;;;;23.55;3.53;;;22.80;99.90;;;;;;4194113;28;20179;-91
2022/10/28 10:22:31;;;;;;;17.48;3.55;;;22.90;99.90;;;;;;4175953;28;20196;-93
2022/10/28 10:24:34;;;;;;;12.48;2.95;;;22.70;99.90;;;;;;4175665;28;20179;-92
2022/10/28 10:26:35;;;;;;;19.17;3.42;;;22.60;99.90;;;;;;4189710;28;20226;-93
2022/10/28 10:28:41;;;;;;;20.98;3.50;;;22.70;99.90;;;;;;4189088;28;20207;-91
2022/10/28 10:30:57;;;;;;;20.58;3.58;;;22.90;99.90;;;;;;4191728;28;21226;-92
2022/10/28 10:33:00;;;;;;;18.67;2.90;;;23.00;99.90;;;;;;4190321;28;20670;-91
2022/10/28 10:35:12;;;;;;;15.20;3.22;;;22.90;99.90;;;;;;4188759;28;20254;-91
2022/10/28 10:37:33;;;;;;;17.20;3.55;;;23.10;99.90;;;;;;4174613;28;20234;-88
2022/10/28 10:39:37;;;;;;;16.80;3.10;;;23.10;99.90;;;;;;4172753;28;20184;-91
2022/10/28 10:41:44;;;;;;;28.02;3.50;;;23.30;99.90;;;;;;4186705;28;20191;-91
2022/10/28 10:43:45;;;;;;;14.27;3.08;;;23.60;99.90;;;;;;4189024;28;20191;-89
2022/10/28 10:45:57;;;;;;;18.38;3.50;;;23.70;99.90;;;;;;4170715;28;20148;-91
2022/10/28 10:48:14;;;;;;;17.75;3.53;;;23.60;99.90;;;;;;4193754;28;20179;-91
2022/10/28 10:50:26;;;;;;;16.52;3.25;;;23.80;99.90;;;;;;4189961;28;20277;-96
2022/10/28 10:52:28;;;;;;;16.90;3.63;;;23.80;99.90;;;;;;4170830;28;20238;-96